RCSS/TSA METAR and TAF weather

Enter ICAO airport designator
Station Type Date Time Source
RCSS METAR 2022/08/13 11:30 UTC NOAA

RCSS 131130Z 08005KT 9999 FEW015 SCT030 BKN045 30/25 Q1008 NOSIG RMK A2977


Station Type Date Time Source
RCSS Decoded METAR 2022/08/13 11:30 UTC NOAA

Sungshan / Taipei, Taiwan (RCSS) 25-04N 121-33E
Aug 13, 2022 - 07:30 AM EDT / 2022.08.13 1130 UTC
Wind: from the E (080 degrees) at 6 MPH (5 KT):0
Visibility: greater than 7 mile(s):0
Sky conditions: mostly cloudy
Temperature: 86 F (30 C)
Heat index: 96.8 F (36.0 C):1
Dew Point: 77 F (25 C)
Relative Humidity: 74%
Pressure (altimeter): 29.77 in. Hg (1008 hPa)
ob: RCSS 131130Z 08005KT 9999 FEW015 SCT030 BKN045 30/25 Q1008 NOSIG RMK A2977
cycle: 11

Station Type Date Time Source
RCSS TAF 2022/08/13 12:03 UTC NOAA

TAF RCSS 131100Z 1312/1412 08005KT 9999 FEW015 BKN032
TEMPO 1320/1402 29005KT
TEMPO 1404/1410 09010KT 5000 SHRA FEW010 FEW015CB BKN020 BKN040

Example: see airport list